F5GJJ-13 Vourey FR current weather conditions

sailwx.info

Wind from 338 at 0 knots gusting 1

Air temperature 6.7° C
Dewpoint 3.6° C

Last reported at 2020-Feb-19 18:53 UTC.
Time now 2020-Feb-19 19:38 UTC

Location: N 45°19' E 005°32'.
View on Google Maps.

See reports from other nearby stations

  
Tides and Currents Weather Stations Pressure Air Temp Water Temp Dewpoint Dewpoint Depression Visibility Wind Speed Wind Dir Waves Ship Positions
date/time (UTC)wind fromknots sea level pressurealtimeterstation pressurevisibilityair tempwater tempwave heightnotes
2020-Feb-19 18:53 338 0 gusting 1 6.7
2020-Feb-19 18:49 338 6.7
2020-Feb-19 18:33 112 1 gusting 1 7.2
2020-Feb-19 18:23 329 0 gusting 0 7.2
2020-Feb-19 18:17 292 1 gusting 1 7.2
2020-Feb-19 18:01 328 1 gusting 2 7.2
2020-Feb-19 17:53 338 2 gusting 2 7.2
2020-Feb-19 17:45 022 7.2
2020-Feb-19 17:29 338 1 gusting 1 7.2
2020-Feb-19 17:23 338 0 gusting 1 7.2
2020-Feb-19 17:13 332 1 gusting 1 7.2
2020-Feb-19 16:57 338 0 7.8
2020-Feb-19 16:53 004 1 gusting 1 7.8
2020-Feb-19 16:41 035 7.8
2020-Feb-19 16:25 022 1 gusting 1 7.8
2020-Feb-19 16:23 022 1 gusting 1 7.8
2020-Feb-19 16:09 022 0 gusting 0 7.8
2020-Feb-19 15:53 068 0 gusting 1 8.3
2020-Feb-19 15:37 145 8.3
2020-Feb-19 15:23 079 1 gusting 2 8.3
2020-Feb-19 15:05 317 1 gusting 1 8.3
2020-Feb-19 14:53 338 2 gusting 2 8.3
2020-Feb-19 14:49 009 0 gusting 0 8.9
2020-Feb-19 14:33 144 0 gusting 1 8.9
2020-Feb-19 14:23 338 0 gusting 0 8.9
2020-Feb-19 14:17 292 0 gusting 0 8.3
2020-Feb-19 14:01 281 0 gusting 1 8.3
2020-Feb-19 13:53 213 8.3
2020-Feb-19 13:45 152 1 gusting 1 8.3
2020-Feb-19 13:29 112 8.3
2020-Feb-19 13:23 072 2 gusting 2 7.8
2020-Feb-19 13:13 058 0 gusting 0 7.8
2020-Feb-19 12:57 330 0 gusting 1 7.8
2020-Feb-19 12:53 338 1 gusting 1 7.8
2020-Feb-19 12:41 135 7.8
2020-Feb-19 12:25 108 1 gusting 2 7.8
2020-Feb-19 12:23 122 1 gusting 2 7.8
2020-Feb-19 12:09 068 7.2
2020-Feb-19 11:53 338 2 gusting 2 6.7
2020-Feb-19 11:37 022 0 gusting 1 6.7
2020-Feb-19 11:21 351 0 gusting 1 6.7
2020-Feb-19 11:05 164 0 gusting 1 6.1
2020-Feb-19 10:53 150 2 gusting 2 6.7
2020-Feb-19 10:49 075 0 gusting 1 6.7
2020-Feb-19 10:33 062 0 gusting 2 6.7
2020-Feb-19 10:23 353 1 gusting 4 6.7
2020-Feb-19 10:17 067 1 gusting 4 7.2
2020-Feb-19 10:01 333 2 gusting 4 6.7
2020-Feb-19 09:45 338 1 gusting 4 6.7
2020-Feb-19 09:29 338 2 gusting 5 6.1
2020-Feb-19 09:23 064 1 gusting 2 6.1
2020-Feb-19 09:13 054 2 gusting 5 5.6
2020-Feb-19 08:57 015 1 gusting 2 5.6
2020-Feb-19 08:53 025 1 gusting 1 5.6
2020-Feb-19 08:41 5.6
2020-Feb-19 08:25 013 1 gusting 1 5.6
2020-Feb-19 08:23 016 1 gusting 1 5.6
2020-Feb-19 08:09 019 0 gusting 2 5.0
2020-Feb-19 07:53 028 1 gusting 1 5.0
2020-Feb-19 07:37 351 1 gusting 1 5.0
2020-Feb-19 07:23 007 2 gusting 2 4.4
2020-Feb-19 07:05 015 1 gusting 2 4.4
2020-Feb-19 06:53 017 1 gusting 2 4.4
2020-Feb-19 06:49 022 1 gusting 1 4.4
2020-Feb-19 06:33 045 0 gusting 5 4.4
2020-Feb-19 06:23 025 1 gusting 1 4.4
2020-Feb-19 06:17 338 1 gusting 1 4.4
2020-Feb-19 06:01 358 0 gusting 1 3.9
2020-Feb-19 05:53 141 2 gusting 4 3.9
2020-Feb-19 05:45 338 2 gusting 4 3.9
2020-Feb-19 05:29 320 4 gusting 5 3.9
2020-Feb-19 05:23 341 4 gusting 5 3.9
2020-Feb-19 05:13 346 1 gusting 2 3.9
2020-Feb-19 04:57 081 0 gusting 0 3.9
2020-Feb-19 04:53 152 1 gusting 1 3.9
2020-Feb-19 04:41 022 0 gusting 0 3.3
2020-Feb-19 04:25 071 1 gusting 2 3.9
2020-Feb-19 04:23 062 1 gusting 2 3.9
2020-Feb-19 04:09 022 3.3
2020-Feb-19 03:53 338 3.3
2020-Feb-19 03:37 338 0 gusting 0 3.3
2020-Feb-19 03:23 158 0 gusting 1 3.3
2020-Feb-19 03:05 338 3.3
2020-Feb-19 02:53 338 3.3
2020-Feb-19 02:49 338 2 gusting 2 3.3
2020-Feb-19 02:33 347 1 gusting 1 2.8
2020-Feb-19 02:23 338 0 gusting 1 2.2
2020-Feb-19 02:17 338 2.8
2020-Feb-19 02:01 338 2.8
2020-Feb-19 01:53 338 1 gusting 2 2.8
2020-Feb-19 01:45 202 0 gusting 0 2.8
2020-Feb-19 01:29 013 1 gusting 1 2.8
2020-Feb-19 01:23 019 1 gusting 1 2.8
2020-Feb-19 01:13 326 2 gusting 4 2.8
2020-Feb-19 00:57 338 0 gusting 1 2.8
2020-Feb-19 00:53 055 2.8
2020-Feb-19 00:41 333 2 gusting 2 2.8
2020-Feb-19 00:25 338 1 gusting 1 3.3
2020-Feb-19 00:23 338 1 gusting 2 3.3
2020-Feb-19 00:09 345 2 gusting 4 3.3
2020-Feb-18 23:53 338 0 3.3
2020-Feb-18 23:37 338 2 gusting 4 3.3
2020-Feb-18 23:23 338 4 gusting 4 3.3
2020-Feb-18 23:05 334 2 gusting 2 3.9
2020-Feb-18 22:53 341 1 gusting 2 3.9
2020-Feb-18 22:49 338 0 gusting 0 3.9
2020-Feb-18 22:33 338 2 gusting 4 3.9
2020-Feb-18 22:23 335 4 gusting 4 3.9
2020-Feb-18 22:17 335 1 gusting 1 3.9
2020-Feb-18 22:01 338 1 gusting 1 3.9
2020-Feb-18 21:53 338 4 gusting 4 3.9
2020-Feb-18 21:45 338 4 gusting 5 3.9
2020-Feb-18 21:29 338 2 gusting 2 4.4
2020-Feb-18 21:23 338 4 gusting 4 4.4
2020-Feb-18 21:13 338 4 gusting 5 4.4
2020-Feb-18 20:57 039 0 gusting 0 5.0
2020-Feb-18 20:53 077 1 gusting 2 5.0
2020-Feb-18 20:41 326 2 gusting 4 5.0
2020-Feb-18 20:25 338 2 gusting 4 5.6
2020-Feb-18 20:23 338 4 gusting 4 5.6
2020-Feb-18 20:09 333 4 gusting 5 5.6
2020-Feb-18 20:03 338 4 gusting 6 5.6
2020-Feb-18 19:53 338 4 gusting 5 5.6
2020-Feb-18 19:47 336 4 gusting 5 5.6
2020-Feb-18 19:31 336 4 gusting 4 5.6
2020-Feb-18 19:23 329 2 gusting 4 5.6
2020-Feb-18 19:15 336 4 gusting 4 5.6
2020-Feb-18 18:59 333 1 gusting 2 6.1
2020-Feb-18 18:53 296 2 gusting 2 6.1
2020-Feb-18 18:43 338 6.1
2020-Feb-18 18:27 338 6.7
2020-Feb-18 18:23 338 6.7
2020-Feb-18 18:11 338 2 gusting 2 7.2
2020-Feb-18 17:55 338 2 gusting 4 7.2
2020-Feb-18 17:39 338 1 gusting 2 7.8
2020-Feb-18 17:23 338 2 gusting 4 8.3
2020-Feb-18 17:07 340 2 gusting 4 8.9
2020-Feb-18 16:51 343 2 gusting 2 10.0
2020-Feb-18 16:35 340 2 gusting 5 10.6
2020-Feb-18 16:23 336 5 gusting 6 11.1
2020-Feb-18 16:19 348 4 gusting 5 11.7
2020-Feb-18 16:03 338 4 gusting 6 12.8
2020-Feb-18 15:53 326 5 gusting 6 12.8
2020-Feb-18 15:47 338 5 gusting 6 12.8
2020-Feb-18 15:31 334 5 gusting 8 13.3
2020-Feb-18 15:23 325 6 gusting 7 13.9
2020-Feb-18 15:15 307 5 gusting 5 13.9
2020-Feb-18 14:59 351 1 gusting 4 12.8
2020-Feb-18 14:53 344 4 gusting 6 12.2
2020-Feb-18 14:43 346 5 gusting 7 11.7
2020-Feb-18 14:27 327 4 gusting 5 11.7
2020-Feb-18 14:23 352 2 gusting 1 12.2
2020-Feb-18 14:11 334 2 gusting 4 12.8
2020-Feb-18 13:56 347 5 gusting 7 11.7
2020-Feb-18 13:55 290 4 gusting 6 12.2
2020-Feb-18 13:39 328 5 gusting 8 13.3
2020-Feb-18 13:23 355 4 gusting 5 13.3
2020-Feb-18 13:07 321 5 gusting 6 15.6
2020-Feb-18 12:53 006 5 gusting 5 14.4
2020-Feb-18 12:35 355 2 gusting 5 15.6
2020-Feb-18 12:23 351 4 gusting 6 12.8
2020-Feb-18 12:19 315 5 gusting 7 12.2
2020-Feb-18 12:03 325 5 gusting 6 15.6
2020-Feb-18 11:53 008 4 gusting 5 15.6
2020-Feb-18 11:47 338 6 gusting 6 14.4
2020-Feb-18 11:31 013 4 gusting 5 15.6
2020-Feb-18 11:15 305 6 gusting 8 15.0
2020-Feb-18 10:59 327 6 gusting 6 14.4
2020-Feb-18 10:53 354 2 gusting 7 13.9
2020-Feb-18 10:43 338 2 gusting 4 11.7
2020-Feb-18 10:27 344 2 gusting 5 9.4
2020-Feb-18 10:23 015 1 gusting 2 9.4
2020-Feb-18 10:11 349 5 gusting 5 9.4
2020-Feb-18 09:55 348 1 gusting 1 11.7
2020-Feb-18 09:39 316 2 gusting 5 13.9
2020-Feb-18 09:23 018 1 gusting 5 12.2
2020-Feb-18 09:07 154 1 gusting 1 8.9
2020-Feb-18 08:53 158 1 gusting 2 7.8
2020-Feb-18 08:35 119 1 gusting 1 6.7
2020-Feb-18 08:23 153 1 gusting 1 6.1
2020-Feb-18 08:19 296 6.1
2020-Feb-18 08:03 309 1 gusting 2 5.0
2020-Feb-18 07:53 315 0 gusting 1 5.0
2020-Feb-18 07:47 338 1 gusting 1 4.4
2020-Feb-18 07:31 068 0 gusting 0 4.4
2020-Feb-18 07:23 338 1 gusting 1 4.4
2020-Feb-18 07:15 338 2 gusting 2 4.4
2020-Feb-18 06:59 026 0 gusting 1 4.4
2020-Feb-18 06:53 338 1 gusting 2 4.4
2020-Feb-18 06:43 323 2 gusting 2 4.4
2020-Feb-18 06:27 315 2 gusting 5 4.4
2020-Feb-18 06:23 296 2 gusting 4 4.4
2020-Feb-18 06:11 336 0 gusting 1 5.0
2020-Feb-18 05:55 332 1 gusting 4 5.0
2020-Feb-18 05:39 324 5 gusting 5 5.0
2020-Feb-18 05:23 329 5 gusting 6 5.0
2020-Feb-18 05:07 328 5 gusting 6 4.4
2020-Feb-18 04:53 334 5 gusting 5 4.4
2020-Feb-18 04:35 333 5 gusting 5 5.0
2020-Feb-18 04:23 337 4 gusting 6 5.0
2020-Feb-18 04:19 338 4 gusting 5 5.0
2020-Feb-18 04:03 333 4 gusting 6 5.0
2020-Feb-18 03:53 338 5 gusting 5 5.0
2020-Feb-18 03:47 335 4 gusting 5 5.0
2020-Feb-18 03:31 314 2 gusting 4 5.0
2020-Feb-18 03:23 348 2 gusting 2 5.0
2020-Feb-18 03:15 338 2 gusting 4 5.0
2020-Feb-18 02:59 321 2 gusting 4 5.0
2020-Feb-18 02:53 343 4 gusting 5 5.0
2020-Feb-18 02:43 338 2 gusting 2 5.6
2020-Feb-18 02:27 338 1 gusting 1 5.6
2020-Feb-18 02:23 338 0 gusting 1 5.6
2020-Feb-18 02:11 338 4 gusting 4 5.6
2020-Feb-18 01:55 338 4 gusting 4 5.6
2020-Feb-18 01:39 338 4 gusting 4 5.6
2020-Feb-18 01:23 338 1 gusting 2 5.6
2020-Feb-18 01:07 338 5.6
2020-Feb-18 00:51 338 2 gusting 4 6.1
2020-Feb-18 00:35 333 2 gusting 4 6.1
2020-Feb-18 00:19 338 4 gusting 4 6.7
2020-Feb-18 00:03 329 1 gusting 2 6.7
2020-Feb-17 23:53 310 1 gusting 2 6.7
2020-Feb-17 23:47 338 1 gusting 2 7.2
2020-Feb-17 23:31 066 7.2
2020-Feb-17 23:23 022 0 gusting 0 7.8
2020-Feb-17 23:15 065 1 gusting 2 7.8
2020-Feb-17 22:59 292 4 gusting 5 7.8
2020-Feb-17 22:43 338 1 gusting 1 7.8
2020-Feb-17 22:27 338 0 gusting 0 7.8
2020-Feb-17 22:23 316 1 gusting 2 7.8
2020-Feb-17 22:11 338 7.8
2020-Feb-17 21:55 338 7.8
2020-Feb-17 21:39 338 2 gusting 2 7.8
2020-Feb-17 21:23 338 1 gusting 2 8.3
2020-Feb-17 21:07 338 2 gusting 2 8.3
2020-Feb-17 20:51 336 1 gusting 1 8.3
2020-Feb-17 20:35 331 1 gusting 4 8.3
2020-Feb-17 20:19 338 1 gusting 2 8.3
2020-Feb-17 20:03 022 0 gusting 0 8.3
2020-Feb-17 19:47 330 1 gusting 1 8.3
2020-Feb-17 19:31 339 0 gusting 0 8.9
2020-Feb-17 19:15 350 2 gusting 2 8.9